createdAt,value
2022-11-27T00:04:46.134Z,101520.31
2022-11-27T00:09:48.876Z,101527.34
2022-11-27T00:14:55.598Z,101522.81
2022-11-27T00:19:58.549Z,101520.31
2022-11-27T00:25:01.425Z,101512.28
2022-11-27T00:30:06.484Z,101523.25
2022-11-27T00:35:10.110Z,101515.41
2022-11-27T00:40:13.640Z,101509.38
2022-11-27T00:45:17.897Z,101501.56
2022-11-27T00:50:20.991Z,101500.84
2022-11-27T00:55:23.967Z,101492.28
2022-11-27T01:00:28.078Z,101488.78
2022-11-27T01:05:30.804Z,101463.81
2022-11-27T01:10:33.556Z,101457.72
2022-11-27T01:15:37.736Z,101441.69
2022-11-27T01:20:40.873Z,101432.97
2022-11-27T01:25:43.601Z,101427.69
2022-11-27T01:30:47.924Z,101420.63
2022-11-27T01:35:58.104Z,101413.66
2022-11-27T01:41:01.839Z,101403.03
2022-11-27T01:46:07.267Z,101415.69
2022-11-27T01:51:10.140Z,101405.97
2022-11-27T01:56:13.195Z,101421.34
2022-11-27T02:01:17.734Z,101422.38
2022-11-27T02:06:20.584Z,101421.50
2022-11-27T02:11:31.328Z,101425.13
2022-11-27T02:16:47.788Z,101415.31
2022-11-27T02:22:02.849Z,101407.41
2022-11-27T02:27:34.609Z,101407.47
2022-11-27T02:32:43.237Z,101400.28
2022-11-27T02:37:50.528Z,101394.09
2022-11-27T02:42:58.923Z,101399.66
2022-11-27T02:48:05.755Z,101402.59
2022-11-27T02:53:13.287Z,101401.00
2022-11-27T02:58:21.197Z,101404.03
2022-11-27T03:03:29.643Z,101402.53
2022-11-27T03:08:38.396Z,101401.13
2022-11-27T03:13:45.107Z,101394.13
2022-11-27T03:18:59.963Z,101386.59
2022-11-27T03:24:02.746Z,101385.81
2022-11-27T03:29:10.891Z,101401.44
2022-11-27T03:34:16.249Z,101395.41
2022-11-27T03:39:20.239Z,101388.53
2022-11-27T03:44:30.330Z,101390.91
2022-11-27T03:49:48.945Z,101388.84
2022-11-27T03:54:58.682Z,101380.97
2022-11-27T04:00:04.965Z,101376.63
2022-11-27T04:05:10.414Z,101377.81
2022-11-27T04:10:13.855Z,101380.81
2022-11-27T04:15:16.690Z,101383.88
2022-11-27T04:20:20.910Z,101383.00
2022-11-27T04:25:24.213Z,101376.91
2022-11-27T04:30:26.954Z,101376.16
2022-11-27T04:35:31.096Z,101359.59
2022-11-27T04:40:33.894Z,101360.63
2022-11-27T04:45:36.805Z,101356.22
2022-11-27T04:50:40.990Z,101344.63
2022-11-27T04:55:43.733Z,101348.47
2022-11-27T05:00:46.541Z,101356.78
2022-11-27T05:05:57.431Z,101357.84
2022-11-27T05:11:02.143Z,101357.94
2022-11-27T05:16:05.941Z,101351.81
2022-11-27T05:21:10.112Z,101346.56
2022-11-27T05:26:12.871Z,101347.59
2022-11-27T05:31:15.719Z,101348.78
2022-11-27T05:36:20.247Z,101357.88
2022-11-27T05:41:23.050Z,101354.44
2022-11-27T05:46:25.928Z,101349.28
2022-11-27T05:51:30.137Z,101349.44
2022-11-27T05:56:32.929Z,101345.91
2022-11-27T06:01:35.672Z,101338.88
2022-11-27T06:06:39.847Z,101337.16
2022-11-27T06:11:43.136Z,101329.28
2022-11-27T06:16:45.938Z,101345.47
2022-11-27T06:21:50.106Z,101341.13
2022-11-27T06:26:53.025Z,101351.94
2022-11-27T06:31:55.919Z,101346.69
2022-11-27T06:37:00.048Z,101340.66
2022-11-27T06:42:03.246Z,101334.41
2022-11-27T06:47:06.165Z,101328.34
2022-11-27T06:52:10.324Z,101327.44
2022-11-27T06:57:14.497Z,101323.09
2022-11-27T07:02:17.359Z,101317.78
2022-11-27T07:07:21.650Z,101303.53
2022-11-27T07:12:24.532Z,101289.41
2022-11-27T07:17:27.344Z,101301.00
2022-11-27T07:22:33.127Z,101294.78
2022-11-27T07:27:35.893Z,101292.00
2022-11-27T07:32:38.868Z,101278.66
2022-11-27T07:37:43.213Z,101276.91
2022-11-27T07:42:46.374Z,101277.84
2022-11-27T07:47:49.122Z,101279.66
2022-11-27T07:52:53.361Z,101275.16
2022-11-27T07:57:56.100Z,101266.38
2022-11-27T08:02:59.867Z,101267.16
2022-11-27T08:08:05.209Z,101258.13
2022-11-27T08:13:08.920Z,101250.97
2022-11-27T08:18:11.787Z,101256.44
2022-11-27T08:23:15.992Z,101248.53
2022-11-27T08:28:18.805Z,101249.16
2022-11-27T08:33:21.562Z,101251.25
2022-11-27T08:38:26.076Z,101240.94
2022-11-27T08:43:29.969Z,101243.28
2022-11-27T08:48:32.825Z,101237.91
2022-11-27T08:53:37.581Z,101237.47
2022-11-27T08:58:41.060Z,101248.09
2022-11-27T09:03:44.948Z,101238.28
2022-11-27T09:08:49.435Z,101242.38
2022-11-27T09:13:52.533Z,101238.56
2022-11-27T09:18:55.420Z,101235.50
2022-11-27T09:24:01.773Z,101225.50
2022-11-27T09:29:04.956Z,101229.00
2022-11-27T09:34:07.732Z,101230.59
2022-11-27T09:39:13.729Z,101225.16
2022-11-27T09:44:28.743Z,101236.63
2022-11-27T09:49:42.753Z,101240.97
2022-11-27T09:54:54.894Z,101237.31
2022-11-27T10:00:02.620Z,101228.28
2022-11-27T10:05:18.672Z,101216.75
2022-11-27T10:10:37.919Z,101213.06
2022-11-27T10:15:48.942Z,101202.22
2022-11-27T10:20:57.547Z,101191.38
2022-11-27T10:26:08.785Z,101166.13
2022-11-27T10:31:15.036Z,101179.41
2022-11-27T10:36:23.070Z,101181.97
2022-11-27T10:42:01.333Z,101176.50
2022-11-27T10:47:02.441Z,101170.91
2022-11-27T10:52:05.517Z,101155.50
2022-11-27T10:57:51.837Z,101151.81
2022-11-27T11:03:01.449Z,101152.38
2022-11-27T11:08:06.133Z,101136.22
2022-11-27T11:13:19.276Z,101135.44
2022-11-27T11:18:24.575Z,101124.88
2022-11-27T11:23:31.286Z,101122.22
2022-11-27T11:28:43.160Z,101116.81
2022-11-27T11:33:54.065Z,101097.19
2022-11-27T11:38:57.621Z,101095.28
2022-11-27T11:44:03.305Z,101086.97
2022-11-27T11:49:08.976Z,101087.03
2022-11-27T11:54:26.568Z,101084.47
2022-11-27T11:59:45.323Z,101075.69
2022-11-27T12:05:04.505Z,101071.47
2022-11-27T12:10:16.555Z,101060.69
2022-11-27T12:15:27.351Z,101059.78
2022-11-27T12:20:50.157Z,101035.66
2022-11-27T12:26:05.171Z,101031.97
2022-11-27T12:31:22.992Z,101021.59
2022-11-27T12:36:51.068Z,101007.06
2022-11-27T12:42:01.721Z,101004.75
2022-11-27T12:47:12.995Z,100988.16
2022-11-27T12:52:20.079Z,100979.97
2022-11-27T12:57:28.424Z,100981.63
2022-11-27T13:02:37.252Z,100968.81
2022-11-27T13:07:47.176Z,100965.66
2022-11-27T13:12:57.763Z,100951.91
2022-11-27T13:18:12.139Z,100947.75
2022-11-27T13:23:15.087Z,100952.84
2022-11-27T13:28:26.068Z,100949.78
2022-11-27T13:33:38.690Z,100947.88
2022-11-27T13:38:42.596Z,100936.28
2022-11-27T13:43:48.272Z,100930.16
2022-11-27T13:48:56.513Z,100929.81
2022-11-27T13:54:13.201Z,100931.34
2022-11-27T13:59:18.052Z,100928.72
2022-11-27T14:04:22.212Z,100921.38
2022-11-27T14:09:36.125Z,100906.59
2022-11-27T14:14:39.263Z,100916.69
2022-11-27T14:19:46.192Z,100925.19
2022-11-27T14:24:56.058Z,100912.88
2022-11-27T14:29:59.215Z,100914.94
2022-11-27T14:35:03.503Z,100920.50
2022-11-27T14:40:14.697Z,100914.59
2022-11-27T14:45:20.898Z,100914.72
2022-11-27T14:50:25.251Z,100902.41
2022-11-27T14:55:34.420Z,100880.31
2022-11-27T15:00:37.539Z,100873.34
2022-11-27T15:05:41.714Z,100859.22
2022-11-27T15:10:44.558Z,100865.63
2022-11-27T15:15:57.263Z,100869.56
2022-11-27T15:21:03.385Z,100858.81
2022-11-27T15:26:14.961Z,100861.69
2022-11-27T15:31:26.123Z,100868.97
2022-11-27T15:36:38.317Z,100855.59
2022-11-27T15:41:51.982Z,100854.81
2022-11-27T15:46:57.301Z,100830.56
2022-11-27T15:52:01.695Z,100835.16
2022-11-27T15:57:04.839Z,100832.47
2022-11-27T16:02:10.190Z,100820.91
2022-11-27T16:07:16.390Z,100806.56
2022-11-27T16:12:19.360Z,100803.94
2022-11-27T16:17:22.143Z,100797.72
2022-11-27T16:22:26.407Z,100795.13
2022-11-27T16:27:29.264Z,100797.03
2022-11-27T16:32:32.152Z,100796.06
2022-11-27T16:37:36.266Z,100787.16
2022-11-27T16:42:39.563Z,100785.41
2022-11-27T16:47:42.504Z,100770.22
2022-11-27T16:52:52.864Z,100762.16
2022-11-27T16:57:57.414Z,100756.03
2022-11-27T17:03:00.229Z,100743.47
2022-11-27T17:08:04.538Z,100735.50
2022-11-27T17:13:07.425Z,100721.22
2022-11-27T17:18:11.406Z,100708.66
2022-11-27T17:23:15.749Z,100702.47
2022-11-27T17:28:18.748Z,100693.56
2022-11-27T17:33:21.534Z,100684.56
2022-11-27T17:38:25.726Z,100675.81
2022-11-27T17:43:30.366Z,100673.22
2022-11-27T17:48:34.858Z,100680.13
2022-11-27T17:53:39.583Z,100682.91
2022-11-27T17:58:44.475Z,100687.41
2022-11-27T18:03:49.086Z,100679.44
2022-11-27T18:08:55.255Z,100681.19
2022-11-27T18:13:58.262Z,100681.19
2022-11-27T18:19:04.663Z,100673.22
2022-11-27T18:24:25.346Z,100673.13
2022-11-27T18:29:28.530Z,100669.66
2022-11-27T18:34:31.365Z,100659.81
2022-11-27T18:39:36.380Z,100658.00
2022-11-27T18:44:44.993Z,100658.97
2022-11-27T18:49:49.010Z,100653.59
2022-11-27T18:54:53.268Z,100662.59
2022-11-27T18:59:56.257Z,100657.22
2022-11-27T19:04:59.087Z,100650.13
2022-11-27T19:10:03.471Z,100649.94
2022-11-27T19:15:07.803Z,100645.50
2022-11-27T19:20:11.549Z,100654.22
2022-11-27T19:25:15.921Z,100644.09
2022-11-27T19:30:19.408Z,100646.53
2022-11-27T19:35:25.192Z,100637.72
2022-11-27T19:40:32.756Z,100630.25
2022-11-27T19:45:37.434Z,100628.34
2022-11-27T19:50:40.481Z,100629.13
2022-11-27T19:55:44.802Z,100618.38
2022-11-27T20:00:48.151Z,100609.28
2022-11-27T20:05:54.351Z,100618.28
2022-11-27T20:11:01.901Z,100601.84
2022-11-27T20:16:08.305Z,100599.81
2022-11-27T20:21:14.366Z,100592.47
2022-11-27T20:26:21.976Z,100580.75
2022-11-27T20:31:26.815Z,100592.97
2022-11-27T20:36:31.555Z,100572.25
2022-11-27T20:41:35.875Z,100567.56
2022-11-27T20:46:39.283Z,100565.56
2022-11-27T20:51:42.189Z,100560.84
2022-11-27T20:56:47.530Z,100553.22
2022-11-27T21:01:50.508Z,100552.00
2022-11-27T21:06:53.625Z,100542.59
2022-11-27T21:11:57.767Z,100516.03
2022-11-27T21:17:04.979Z,100511.84
2022-11-27T21:22:09.959Z,100511.16
2022-11-27T21:27:14.119Z,100509.63
2022-11-27T21:32:18.133Z,100503.56
2022-11-27T21:37:23.850Z,100494.94
2022-11-27T21:42:29.200Z,100482.91
2022-11-27T21:47:32.028Z,100481.44
2022-11-27T21:52:35.554Z,100466.63
2022-11-27T21:57:40.157Z,100455.47
2022-11-27T22:02:44.530Z,100454.00
2022-11-27T22:07:47.434Z,100452.75
2022-11-27T22:12:51.847Z,100453.41
2022-11-27T22:17:54.617Z,100447.63
2022-11-27T22:22:57.747Z,100456.25
2022-11-27T22:28:01.881Z,100458.53
2022-11-27T22:33:07.245Z,100442.06
2022-11-27T22:38:10.168Z,100448.09
2022-11-27T22:43:14.327Z,100447.03
2022-11-27T22:48:17.276Z,100440.50
2022-11-27T22:53:20.197Z,100442.97
2022-11-27T22:58:28.796Z,100432.84
2022-11-27T23:03:33.222Z,100433.41
2022-11-27T23:08:36.173Z,100421.41
2022-11-27T23:13:42.828Z,100407.84
2022-11-27T23:18:50.656Z,100409.25
2022-11-27T23:23:53.561Z,100402.03
2022-11-27T23:28:58.032Z,100399.13
2022-11-27T23:34:02.374Z,100393.41
2022-11-27T23:39:06.776Z,100379.81
2022-11-27T23:44:10.976Z,100377.91
2022-11-27T23:49:13.765Z,100378.56
2022-11-27T23:54:16.591Z,100380.31
2022-11-27T23:59:21.171Z,100372.00
